Time;durP1;ratioP1;P1;durP2;ratioP2;P2;SDS_P1;SDS_P2;PMS_P1;PMS_P2;Temp;Humidity;BMP_temperature;BMP_pressure;BME280_temperature;BME280_humidity;BME280_pressure;Samples;Min_cycle;Max_cycle;Signal;HPM_P1;HPM_P2
2023/03/19 17:29:37;;;;;;;12.27;5.40;;;15.40;77.00;;;;;;6283207;27;20469;-79
2023/03/19 17:32:44;;;;;;;15.07;7.57;;;15.20;77.70;;;;;;6266623;28;90415;-77
2023/03/19 17:35:46;;;;;;;14.93;8.15;;;15.00;78.40;;;;;;6318931;28;20040;-78
2023/03/19 17:38:48;;;;;;;16.42;8.80;;;14.90;78.90;;;;;;6281620;28;20067;-78
2023/03/19 17:41:51;;;;;;;14.23;8.27;;;14.90;79.10;;;;;;6314697;28;20052;-76
2023/03/19 17:44:55;;;;;;;8.35;4.60;;;14.90;79.10;;;;;;6315398;28;20052;-77
2023/03/19 17:47:58;;;;;;;4.80;2.15;;;14.80;79.00;;;;;;6314579;28;20194;-78
2023/03/19 17:51:01;;;;;;;4.73;1.97;;;14.70;79.50;;;;;;6331584;28;20043;-78
2023/03/19 17:54:06;;;;;;;4.20;1.92;;;14.60;80.10;;;;;;6341072;28;20052;-78
2023/03/19 17:57:12;;;;;;;3.33;1.60;;;14.50;80.90;;;;;;6341351;28;20051;-78
2023/03/19 18:00:18;;;;;;;4.43;1.90;;;14.40;80.90;;;;;;6327909;28;20048;-78
2023/03/19 18:03:22;;;;;;;5.05;2.00;;;14.30;81.80;;;;;;6329783;28;20048;-77
2023/03/19 18:06:30;;;;;;;4.45;1.85;;;14.20;82.00;;;;;;6318793;28;20414;-77
2023/03/19 18:09:32;;;;;;;4.80;2.00;;;14.20;82.40;;;;;;6298223;28;20059;-78
2023/03/19 18:12:35;;;;;;;4.75;1.90;;;14.20;82.40;;;;;;6311503;28;20056;-78
2023/03/19 18:15:40;;;;;;;4.28;2.00;;;14.20;82.60;;;;;;6329087;28;20044;-77
2023/03/19 18:18:42;;;;;;;3.47;2.00;;;14.20;82.70;;;;;;6318695;28;20055;-78
2023/03/19 18:21:44;;;;;;;4.95;2.05;;;14.10;83.10;;;;;;6333558;28;20485;-77
2023/03/19 18:24:46;;;;;;;4.90;1.95;;;14.00;83.20;;;;;;6293526;28;20044;-77
2023/03/19 18:27:49;;;;;;;5.68;2.72;;;14.00;83.50;;;;;;6304363;28;20061;-78
2023/03/19 18:30:53;;;;;;;6.47;3.20;;;13.80;84.40;;;;;;6300811;28;20269;-79
2023/03/19 18:33:59;;;;;;;5.20;2.88;;;13.70;85.40;;;;;;6308980;28;20090;-78
2023/03/19 18:37:01;;;;;;;8.20;4.00;;;13.60;86.10;;;;;;6294099;28;20048;-78
2023/03/19 18:40:03;;;;;;;6.38;2.88;;;13.80;85.80;;;;;;6288048;28;20049;-78
2023/03/19 18:43:06;;;;;;;5.57;2.83;;;13.80;86.10;;;;;;6284370;28;21001;-78
2023/03/19 18:46:13;;;;;;;6.13;2.70;;;13.70;86.30;;;;;;6299769;28;20121;-79
2023/03/19 18:49:22;;;;;;;4.68;2.33;;;13.80;86.50;;;;;;6292044;28;20063;-79
2023/03/19 18:52:24;;;;;;;4.40;2.17;;;13.70;86.70;;;;;;6294389;28;20040;-78
2023/03/19 18:55:29;;;;;;;8.27;2.47;;;13.70;86.80;;;;;;6294647;28;20059;-78
2023/03/19 18:58:31;;;;;;;5.38;2.45;;;13.70;86.50;;;;;;6293471;28;20143;-77
2023/03/19 19:01:34;;;;;;;6.15;2.20;;;13.60;87.10;;;;;;6279618;28;20497;-78
2023/03/19 19:04:36;;;;;;;7.53;2.40;;;13.60;87.50;;;;;;6282789;28;20047;-77
2023/03/19 19:07:38;;;;;;;4.97;2.03;;;13.60;88.50;;;;;;6282949;28;20056;-77
2023/03/19 19:10:44;;;;;;;5.47;2.40;;;13.70;89.60;;;;;;6281125;28;20041;-76
2023/03/19 19:13:50;;;;;;;6.18;2.20;;;13.50;90.40;;;;;;6289382;28;20119;-77
2023/03/19 19:16:55;;;;;;;4.10;2.20;;;13.60;90.60;;;;;;6281850;28;20048;-77
2023/03/19 19:19:57;;;;;;;4.95;2.13;;;13.50;90.90;;;;;;6284623;28;20485;-77
2023/03/19 19:22:59;;;;;;;5.43;2.05;;;13.50;90.90;;;;;;6285899;28;20461;-78
2023/03/19 19:26:01;;;;;;;4.18;2.17;;;13.50;91.40;;;;;;6278585;28;20045;-77
2023/03/19 19:29:04;;;;;;;4.95;2.35;;;13.40;92.00;;;;;;6277600;28;20579;-78
2023/03/19 19:32:20;;;;;;;4.40;2.30;;;13.50;92.30;;;;;;6298283;28;20044;-78
2023/03/19 19:35:25;;;;;;;4.18;2.30;;;13.50;92.30;;;;;;6291019;28;20049;-78
2023/03/19 19:38:27;;;;;;;5.50;2.55;;;13.30;93.00;;;;;;6285724;28;20045;-80
2023/03/19 19:41:29;;;;;;;5.00;2.70;;;13.20;93.40;;;;;;6297927;28;20406;-78
2023/03/19 19:44:31;;;;;;;6.05;2.70;;;13.20;93.70;;;;;;6294983;28;20516;-78
2023/03/19 19:47:34;;;;;;;4.78;2.45;;;13.20;94.10;;;;;;6295274;28;20055;-79
2023/03/19 19:50:36;;;;;;;4.22;2.20;;;13.10;93.50;;;;;;6314380;28;20563;-78
2023/03/19 19:53:38;;;;;;;5.78;2.72;;;13.10;93.80;;;;;;6321463;28;20044;-78
2023/03/19 19:56:40;;;;;;;6.60;3.17;;;13.10;93.80;;;;;;6321148;28;20426;-78
2023/03/19 19:59:43;;;;;;;6.13;3.33;;;13.00;93.90;;;;;;6299914;28;20052;-76
2023/03/19 20:02:46;;;;;;;5.72;3.40;;;13.00;94.20;;;;;;6295101;28;20040;-78
2023/03/19 20:05:49;;;;;;;6.25;3.75;;;13.00;94.60;;;;;;6295419;28;20413;-78
2023/03/19 20:08:52;;;;;;;9.83;3.67;;;13.00;94.60;;;;;;6294865;28;20060;-76
2023/03/19 20:11:54;;;;;;;7.68;4.20;;;13.00;94.70;;;;;;6294684;28;20059;-75
2023/03/19 20:14:57;;;;;;;8.02;3.90;;;12.90;94.80;;;;;;6298706;28;20048;-78
2023/03/19 20:18:02;;;;;;;7.60;4.45;;;12.90;95.00;;;;;;6307601;28;20055;-78
2023/03/19 20:21:05;;;;;;;7.18;4.35;;;12.80;95.10;;;;;;6295712;28;20509;-76
2023/03/19 20:24:07;;;;;;;;;;;12.80;95.30;;;;;;6295182;28;20512;-79
2023/03/19 20:27:18;;;;;;;7.25;4.30;;;12.80;95.40;;;;;;6279993;28;19931;-78
2023/03/19 20:30:25;;;;;;;6.72;4.13;;;12.80;95.50;;;;;;6293255;28;20075;-79
2023/03/19 20:33:30;;;;;;;7.07;4.18;;;12.70;95.50;;;;;;6295182;28;20051;-78
2023/03/19 20:36:31;;;;;;;7.10;4.38;;;12.60;95.70;;;;;;6292519;28;20093;-77
2023/03/19 20:39:33;;;;;;;7.70;4.07;;;12.60;95.90;;;;;;6293541;28;20060;-80
2023/03/19 20:42:35;;;;;;;7.35;4.28;;;12.50;96.10;;;;;;6293493;28;20500;-79
2023/03/19 20:45:38;;;;;;;8.38;4.38;;;12.50;96.10;;;;;;6281440;28;20047;-77
2023/03/19 20:48:42;;;;;;;6.88;3.67;;;12.50;96.20;;;;;;6285496;28;20044;-79
2023/03/19 20:51:44;;;;;;;7.65;3.70;;;12.40;96.40;;;;;;6319825;28;20206;-80
2023/03/19 20:54:45;;;;;;;5.43;3.70;;;12.30;96.50;;;;;;6310252;28;20071;-80
2023/03/19 20:57:50;;;;;;;6.35;3.30;;;12.40;96.70;;;;;;6292534;28;20071;-78
2023/03/19 21:00:52;;;;;;;6.80;3.28;;;12.40;96.80;;;;;;6298046;28;20076;-77
2023/03/19 21:03:56;;;;;;;5.63;3.13;;;12.30;96.80;;;;;;6293025;28;20056;-79
2023/03/19 21:06:57;;;;;;;5.20;3.10;;;12.20;97.20;;;;;;6293445;28;20052;-80
2023/03/19 21:10:00;;;;;;;6.13;3.17;;;12.20;97.30;;;;;;6293786;28;20055;-79
2023/03/19 21:13:04;;;;;;;5.85;3.30;;;12.20;97.50;;;;;;6292335;28;20076;-79
2023/03/19 21:16:06;;;;;;;;;;;12.10;97.70;;;;;;6294699;28;20125;-77
2023/03/19 21:19:11;;;;;;;6.22;3.55;;;12.10;98.10;;;;;;6282556;28;19925;-77
2023/03/19 21:22:16;;;;;;;5.25;3.00;;;12.10;98.10;;;;;;6280048;28;20056;-76
2023/03/19 21:25:23;;;;;;;6.05;3.40;;;12.10;98.20;;;;;;6294355;28;20080;-79
2023/03/19 21:28:29;;;;;;;5.68;3.42;;;11.90;98.60;;;;;;6296315;28;20067;-77
2023/03/19 21:31:32;;;;;;;6.68;3.88;;;12.00;98.60;;;;;;6318826;28;20052;-77
2023/03/19 21:34:35;;;;;;;5.63;3.97;;;12.00;98.70;;;;;;6313963;28;20044;-77
2023/03/19 21:37:39;;;;;;;6.75;4.38;;;12.10;98.80;;;;;;6292238;28;20055;-77
2023/03/19 21:40:41;;;;;;;7.88;4.88;;;12.10;98.90;;;;;;6304723;28;20041;-76
2023/03/19 21:43:46;;;;;;;7.88;4.00;;;12.10;99.00;;;;;;6295322;28;20414;-77
2023/03/19 21:46:49;;;;;;;7.65;4.30;;;12.10;99.20;;;;;;6297010;28;20391;-77
2023/03/19 21:49:52;;;;;;;7.32;4.10;;;12.10;99.40;;;;;;6313405;28;20044;-79
2023/03/19 21:52:54;;;;;;;6.63;3.35;;;12.10;99.60;;;;;;6320905;28;20058;-79
2023/03/19 21:55:59;;;;;;;5.95;3.53;;;12.00;99.80;;;;;;6328854;28;20205;-79
2023/03/19 21:59:07;;;;;;;6.90;3.90;;;12.10;99.90;;;;;;6323193;28;20054;-78
2023/03/19 22:02:38;;;;;;;5.55;3.55;;;12.00;99.90;;;;;;6294029;28;20558;-79
2023/03/19 22:05:41;;;;;;;6.70;4.00;;;12.00;99.90;;;;;;6289992;28;20060;-77
2023/03/19 22:08:45;;;;;;;7.57;4.32;;;12.00;99.90;;;;;;6302519;28;20048;-78
2023/03/19 22:11:47;;;;;;;6.40;3.75;;;12.00;99.90;;;;;;6294655;28;20414;-77
2023/03/19 22:14:49;;;;;;;5.53;3.42;;;11.90;99.70;;;;;;6296099;28;20055;-77
2023/03/19 22:17:51;;;;;;;7.18;3.22;;;11.90;99.20;;;;;;6298387;28;20421;-78
2023/03/19 22:20:54;;;;;;;5.45;2.67;;;12.00;99.00;;;;;;6297791;28;20060;-77
2023/03/19 22:23:56;;;;;;;8.93;4.65;;;12.00;98.70;;;;;;6298580;28;20549;-78
2023/03/19 22:26:58;;;;;;;5.85;3.58;;;11.90;98.60;;;;;;6298716;28;20059;-77
2023/03/19 22:30:02;;;;;;;4.63;2.85;;;11.90;98.40;;;;;;6300622;28;20486;-78
2023/03/19 22:33:13;;;;;;;4.80;2.92;;;11.90;98.30;;;;;;6300915;28;20049;-78
2023/03/19 22:36:16;;;;;;;6.07;2.70;;;12.00;98.20;;;;;;6299518;28;20500;-78
2023/03/19 22:39:18;;;;;;;4.93;2.80;;;12.00;98.00;;;;;;6318400;28;20048;-76
2023/03/19 22:42:20;;;;;;;5.32;2.97;;;12.00;98.10;;;;;;6325587;28;20044;-77
2023/03/19 22:45:28;;;;;;;5.85;2.90;;;12.00;98.20;;;;;;6322823;28;20044;-79
2023/03/19 22:48:30;;;;;;;6.20;2.92;;;11.90;98.10;;;;;;6299611;28;20055;-78
2023/03/19 22:51:33;;;;;;;4.40;2.70;;;11.90;98.10;;;;;;6300541;28;20056;-78
2023/03/19 22:54:35;;;;;;;5.25;2.58;;;11.90;97.70;;;;;;6310141;28;20378;-77
2023/03/19 22:57:37;;;;;;;5.30;2.60;;;11.90;97.60;;;;;;6320442;28;20052;-80
